createdAt,value
2023-04-22T00:02:13.258Z,3.30
2023-04-22T00:04:41.806Z,3.15
2023-04-22T00:07:08.625Z,3.20
2023-04-22T00:09:35.366Z,3.10
2023-04-22T00:12:02.488Z,3.03
2023-04-22T00:14:29.149Z,4.18
2023-04-22T00:16:56.176Z,3.30
2023-04-22T00:19:23.248Z,3.95
2023-04-22T00:21:50.246Z,3.53
2023-04-22T00:24:16.955Z,3.63
2023-04-22T00:26:43.554Z,3.80
2023-04-22T00:29:10.309Z,3.30
2023-04-22T00:31:36.810Z,3.22
2023-04-22T00:34:03.311Z,3.70
2023-04-22T00:36:29.823Z,3.20
2023-04-22T00:38:56.411Z,2.90
2023-04-22T00:41:23.321Z,2.95
2023-04-22T00:43:50.903Z,2.78
2023-04-22T00:46:17.445Z,3.80
2023-04-22T00:48:44.796Z,3.95
2023-04-22T00:51:11.293Z,3.35
2023-04-22T00:53:37.810Z,4.25
2023-04-22T00:56:04.616Z,3.08
2023-04-22T00:58:31.352Z,3.15
2023-04-22T01:00:58.714Z,2.75
2023-04-22T01:03:28.525Z,3.42
2023-04-22T01:05:56.181Z,3.20
2023-04-22T01:08:27.935Z,3.67
2023-04-22T01:10:54.581Z,2.80
2023-04-22T01:13:21.302Z,3.25
2023-04-22T01:15:48.025Z,3.10
2023-04-22T01:18:15.613Z,3.33
2023-04-22T01:20:42.386Z,2.90
2023-04-22T01:23:19.451Z,2.92
2023-04-22T01:25:47.005Z,3.70
2023-04-22T01:28:14.549Z,3.25
2023-04-22T01:30:42.059Z,2.65
2023-04-22T01:33:09.953Z,3.17
2023-04-22T01:35:37.382Z,2.90
2023-04-22T01:38:05.364Z,3.30
2023-04-22T01:40:32.632Z,4.05
2023-04-22T01:43:00.646Z,2.65
2023-04-22T01:45:27.777Z,3.53
2023-04-22T01:47:55.412Z,4.45
2023-04-22T01:50:23.135Z,3.28
2023-04-22T01:52:50.228Z,2.70
2023-04-22T01:55:17.053Z,2.78
2023-04-22T01:57:43.716Z,2.95
2023-04-22T02:00:10.950Z,4.13
2023-04-22T02:02:37.613Z,3.10
2023-04-22T02:05:06.644Z,2.53
2023-04-22T02:07:33.357Z,3.42
2023-04-22T02:09:59.881Z,3.30
2023-04-22T02:12:26.356Z,3.50
2023-04-22T02:14:52.887Z,2.72
2023-04-22T02:17:19.372Z,2.88
2023-04-22T02:19:45.965Z,3.40
2023-04-22T02:22:12.495Z,3.22
2023-04-22T02:24:39.128Z,3.10
2023-04-22T02:27:06.303Z,4.32
2023-04-22T02:29:32.878Z,4.25
2023-04-22T02:32:00.019Z,4.35
2023-04-22T02:34:27.008Z,3.15
2023-04-22T02:36:53.636Z,3.03
2023-04-22T02:39:20.491Z,3.63
2023-04-22T02:41:47.012Z,3.95
2023-04-22T02:44:13.574Z,3.45
2023-04-22T02:46:40.191Z,4.35
2023-04-22T02:49:06.820Z,4.05
2023-04-22T02:51:33.375Z,3.95
2023-04-22T02:54:00.274Z,4.40
2023-04-22T02:56:27.397Z,3.55
2023-04-22T02:58:53.919Z,3.75
2023-04-22T03:01:20.505Z,3.75
2023-04-22T03:03:47.227Z,4.63
2023-04-22T03:06:13.932Z,4.60
2023-04-22T03:08:40.518Z,4.18
2023-04-22T03:11:07.051Z,3.70
2023-04-22T03:13:33.595Z,3.55
2023-04-22T03:16:00.273Z,4.47
2023-04-22T03:18:26.915Z,4.45
2023-04-22T03:20:53.404Z,4.38
2023-04-22T03:23:19.879Z,4.43
2023-04-22T03:25:46.441Z,4.45
2023-04-22T03:28:12.920Z,4.25
2023-04-22T03:30:39.446Z,4.88
2023-04-22T03:33:06.068Z,3.00
2023-04-22T03:35:32.607Z,4.97
2023-04-22T03:37:59.103Z,4.60
2023-04-22T03:40:25.702Z,4.78
2023-04-22T03:42:52.188Z,3.85
2023-04-22T03:45:18.782Z,5.32
2023-04-22T03:47:45.740Z,4.45
2023-04-22T03:50:12.268Z,4.22
2023-04-22T03:52:39.097Z,4.22
2023-04-22T03:55:06.203Z,3.70
2023-04-22T03:57:32.694Z,3.97
2023-04-22T03:59:59.156Z,4.68
2023-04-22T04:02:25.790Z,4.13
2023-04-22T04:04:52.630Z,5.13
2023-04-22T04:07:19.487Z,3.75
2023-04-22T04:09:46.310Z,4.63
2023-04-22T04:12:12.829Z,3.78
2023-04-22T04:14:39.874Z,4.35
2023-04-22T04:17:10.344Z,4.47
2023-04-22T04:19:38.047Z,4.90
2023-04-22T04:22:05.077Z,4.05
2023-04-22T04:24:31.575Z,4.18
2023-04-22T04:26:58.177Z,4.57
2023-04-22T04:29:25.206Z,4.43
2023-04-22T04:31:51.967Z,4.97
2023-04-22T04:34:19.200Z,5.03
2023-04-22T04:36:46.551Z,3.92
2023-04-22T04:39:13.063Z,4.63
2023-04-22T04:41:41.228Z,4.43
2023-04-22T04:44:07.785Z,4.38
2023-04-22T04:46:34.659Z,5.18
2023-04-22T04:49:02.401Z,4.45
2023-04-22T04:51:29.009Z,3.78
2023-04-22T04:53:55.594Z,3.30
2023-04-22T04:56:22.111Z,3.83
2023-04-22T04:58:48.676Z,3.30
2023-04-22T05:01:15.261Z,5.25
2023-04-22T05:03:42.377Z,3.42
2023-04-22T05:06:09.119Z,3.63
2023-04-22T05:08:35.847Z,3.80
2023-04-22T05:11:02.396Z,3.65
2023-04-22T05:13:29.121Z,3.78
2023-04-22T05:15:55.846Z,3.58
2023-04-22T05:18:22.410Z,3.80
2023-04-22T05:20:49.102Z,3.78
2023-04-22T05:23:15.647Z,3.83
2023-04-22T05:25:42.398Z,3.55
2023-04-22T05:28:09.614Z,3.35
2023-04-22T05:30:36.264Z,3.55
2023-04-22T05:33:03.018Z,4.45
2023-04-22T05:35:29.681Z,3.47
2023-04-22T05:37:56.203Z,5.53
2023-04-22T05:40:22.846Z,3.78
2023-04-22T05:42:49.347Z,3.55
2023-04-22T05:45:16.128Z,4.15
2023-04-22T05:47:42.654Z,3.58
2023-04-22T05:50:09.409Z,3.65
2023-04-22T05:52:35.914Z,3.25
2023-04-22T05:55:02.441Z,3.35
2023-04-22T05:57:29.146Z,4.13
2023-04-22T05:59:55.616Z,3.42
2023-04-22T06:02:22.297Z,3.78
2023-04-22T06:04:49.405Z,4.18
2023-04-22T06:07:16.407Z,3.30
2023-04-22T06:09:43.217Z,3.95
2023-04-22T06:12:10.949Z,3.35
2023-04-22T06:14:37.470Z,3.80
2023-04-22T06:17:04.156Z,4.05
2023-04-22T06:19:30.707Z,4.90
2023-04-22T06:21:57.212Z,4.07
2023-04-22T06:24:23.746Z,4.25
2023-04-22T06:26:50.215Z,3.92
2023-04-22T06:29:19.490Z,3.22
2023-04-22T06:31:46.562Z,3.70
2023-04-22T06:34:13.115Z,3.25
2023-04-22T06:36:39.690Z,4.00
2023-04-22T06:39:06.527Z,3.80
2023-04-22T06:41:33.460Z,3.88
2023-04-22T06:44:00.021Z,4.13
2023-04-22T06:46:26.639Z,3.78
2023-04-22T06:48:53.127Z,4.32
2023-04-22T06:51:19.663Z,4.15
2023-04-22T06:53:46.424Z,4.50
2023-04-22T06:56:13.023Z,3.88
2023-04-22T06:58:39.623Z,4.22
2023-04-22T07:01:06.176Z,4.43
2023-04-22T07:03:32.862Z,3.97
2023-04-22T07:06:00.439Z,4.80
2023-04-22T07:08:27.023Z,4.13
2023-04-22T07:10:54.022Z,4.80
2023-04-22T07:13:20.665Z,4.10
2023-04-22T07:15:47.333Z,4.32
2023-04-22T07:18:13.818Z,5.43
2023-04-22T07:20:40.347Z,4.43
2023-04-22T07:23:06.836Z,4.45
2023-04-22T07:25:33.312Z,4.55
2023-04-22T07:27:59.936Z,5.25
2023-04-22T07:30:26.470Z,4.00
2023-04-22T07:32:53.247Z,4.28
2023-04-22T07:35:19.941Z,4.40
2023-04-22T07:37:46.513Z,5.22
2023-04-22T07:40:14.069Z,4.57
2023-04-22T07:42:40.840Z,4.75
2023-04-22T07:45:07.728Z,4.05
2023-04-22T07:47:34.461Z,4.55
2023-04-22T07:50:01.131Z,4.65
2023-04-22T07:52:27.663Z,5.22
2023-04-22T07:54:54.181Z,4.53
2023-04-22T07:57:22.867Z,4.70
2023-04-22T07:59:49.875Z,4.90
2023-04-22T08:02:16.480Z,4.45
2023-04-22T08:04:43.344Z,4.68
2023-04-22T08:07:26.826Z,5.32
2023-04-22T08:09:56.836Z,5.05
2023-04-22T08:12:24.121Z,4.82
2023-04-22T08:14:50.773Z,4.55
2023-04-22T08:17:17.420Z,4.47
2023-04-22T08:19:43.947Z,4.65
2023-04-22T08:22:10.436Z,5.28
2023-04-22T08:24:36.964Z,4.93
2023-04-22T08:27:03.542Z,4.50
2023-04-22T08:29:30.228Z,4.18
2023-04-22T08:31:56.767Z,4.55
2023-04-22T08:34:24.884Z,6.93
2023-04-22T08:36:51.575Z,5.63
2023-04-22T08:39:18.342Z,4.93
2023-04-22T08:41:45.873Z,4.10
2023-04-22T08:44:14.373Z,3.92
2023-04-22T08:46:46.590Z,4.65
2023-04-22T08:49:16.382Z,3.95
2023-04-22T08:51:44.138Z,4.63
2023-04-22T08:54:11.423Z,4.57
2023-04-22T08:56:43.390Z,5.25
2023-04-22T08:59:11.550Z,5.53
2023-04-22T09:01:42.192Z,4.82
2023-04-22T09:04:11.355Z,4.40
2023-04-22T09:06:39.176Z,4.55
2023-04-22T09:09:05.954Z,4.40
2023-04-22T09:11:33.466Z,4.72
2023-04-22T09:14:00.287Z,5.40
2023-04-22T09:16:29.870Z,3.55
2023-04-22T09:18:57.443Z,4.38
2023-04-22T09:21:32.085Z,4.38
2023-04-22T09:24:02.390Z,4.55
2023-04-22T09:26:28.919Z,4.32
2023-04-22T09:29:01.131Z,3.35
2023-04-22T09:31:28.693Z,4.30
2023-04-22T09:34:00.647Z,3.63
2023-04-22T09:36:28.965Z,3.13
2023-04-22T09:38:56.296Z,3.20
2023-04-22T09:41:39.570Z,2.80
2023-04-22T09:44:14.797Z,2.95
2023-04-22T09:46:45.019Z,3.17
2023-04-22T09:49:11.763Z,3.53
2023-04-22T09:51:42.032Z,4.80
2023-04-22T09:54:10.634Z,3.95
2023-04-22T09:56:48.668Z,4.05
2023-04-22T09:59:29.909Z,4.03
2023-04-22T10:02:09.488Z,4.03
2023-04-22T10:04:36.610Z,3.88
2023-04-22T10:07:03.207Z,4.40
2023-04-22T10:09:29.912Z,4.45
2023-04-22T10:12:01.081Z,4.60
2023-04-22T10:14:28.165Z,4.35
2023-04-22T10:16:59.954Z,4.40
2023-04-22T10:19:27.330Z,4.15
2023-04-22T10:21:57.330Z,7.13
2023-04-22T10:24:27.327Z,5.28
2023-04-22T10:27:02.817Z,7.63
2023-04-22T10:29:38.658Z,5.45
2023-04-22T10:32:08.498Z,4.97
2023-04-22T10:34:38.987Z,4.47
2023-04-22T10:37:09.480Z,4.50
2023-04-22T10:39:36.398Z,6.43
2023-04-22T10:42:02.860Z,5.90
2023-04-22T10:44:44.921Z,4.95
2023-04-22T10:47:11.594Z,6.75
2023-04-22T10:49:38.481Z,7.88
2023-04-22T10:52:07.836Z,7.57
2023-04-22T10:54:37.088Z,5.78
2023-04-22T10:57:11.854Z,5.22
2023-04-22T10:59:51.793Z,5.10
2023-04-22T11:02:19.499Z,4.40
2023-04-22T11:04:47.067Z,4.25
2023-04-22T11:07:23.087Z,4.40
2023-04-22T11:09:52.549Z,4.43
2023-04-22T11:12:51.624Z,3.75
2023-04-22T11:15:19.972Z,4.30
2023-04-22T11:17:48.259Z,5.32
2023-04-22T11:20:18.541Z,4.85
2023-04-22T11:22:51.862Z,3.53
2023-04-22T11:25:19.013Z,4.40
2023-04-22T11:27:45.970Z,4.68
2023-04-22T11:30:18.007Z,4.57
2023-04-22T11:32:56.013Z,3.53
2023-04-22T11:35:22.527Z,3.75
2023-04-22T11:37:58.920Z,5.15
2023-04-22T11:40:40.653Z,4.53
2023-04-22T11:43:10.082Z,4.10
2023-04-22T11:45:38.529Z,4.28
2023-04-22T11:48:07.685Z,7.47
2023-04-22T11:50:36.840Z,4.53
2023-04-22T11:53:15.505Z,4.05
2023-04-22T11:55:43.314Z,3.58
2023-04-22T11:58:09.766Z,4.15
2023-04-22T12:00:49.277Z,3.63
2023-04-22T12:03:19.340Z,4.15
2023-04-22T12:05:47.258Z,6.25
2023-04-22T12:08:16.861Z,4.28
2023-04-22T12:10:48.572Z,3.75
2023-04-22T12:13:30.234Z,3.75
2023-04-22T12:16:04.540Z,4.68
2023-04-22T12:21:04.595Z,5.47
2023-04-22T12:23:51.373Z,5.88
2023-04-22T12:26:20.795Z,6.32
2023-04-22T12:28:48.238Z,5.93
2023-04-22T12:31:15.412Z,6.88
2023-04-22T12:33:42.212Z,5.68
2023-04-22T12:36:09.817Z,6.63
2023-04-22T12:38:36.515Z,6.93
2023-04-22T12:41:04.675Z,7.03
2023-04-22T12:43:36.333Z,7.07
2023-04-22T12:46:04.068Z,6.32
2023-04-22T12:48:31.080Z,6.85
2023-04-22T12:50:58.568Z,6.78
2023-04-22T12:53:27.364Z,7.53
2023-04-22T12:55:54.292Z,6.90
2023-04-22T12:58:20.905Z,6.85
2023-04-22T13:00:47.632Z,7.18
2023-04-22T13:03:14.259Z,8.00
2023-04-22T13:05:41.080Z,7.65
2023-04-22T13:08:08.335Z,7.45
2023-04-22T13:10:36.101Z,7.20
2023-04-22T13:15:34.079Z,7.35
2023-04-22T13:18:00.691Z,8.25
2023-04-22T13:20:27.333Z,9.77
2023-04-22T13:22:53.893Z,7.97
2023-04-22T13:25:20.578Z,7.75
2023-04-22T13:27:47.111Z,8.30
2023-04-22T13:30:14.118Z,7.60
2023-04-22T13:32:41.248Z,7.60
2023-04-22T13:35:09.286Z,6.65
2023-04-22T13:37:36.896Z,6.82
2023-04-22T13:40:05.978Z,5.70
2023-04-22T13:42:32.644Z,4.95
2023-04-22T13:44:59.163Z,4.35
2023-04-22T13:47:25.764Z,3.13
2023-04-22T13:49:52.462Z,3.63
2023-04-22T13:52:18.935Z,3.42
2023-04-22T13:54:46.106Z,3.75
2023-04-22T13:57:13.197Z,3.00
2023-04-22T13:59:41.747Z,3.20
2023-04-22T14:02:08.998Z,4.18
2023-04-22T14:04:35.782Z,4.45
2023-04-22T14:07:02.655Z,5.65
2023-04-22T14:09:29.243Z,6.32
2023-04-22T14:11:55.838Z,8.27
2023-04-22T14:14:22.404Z,10.05
2023-04-22T14:16:49.188Z,12.07
2023-04-22T14:19:15.815Z,14.65
2023-04-22T14:21:42.320Z,13.90
2023-04-22T14:24:08.962Z,14.52
2023-04-22T14:26:35.459Z,15.95
2023-04-22T14:29:02.127Z,16.65
2023-04-22T14:31:28.629Z,15.55
2023-04-22T14:33:55.438Z,15.60
2023-04-22T14:36:21.953Z,15.23
2023-04-22T14:38:48.613Z,16.55
2023-04-22T14:41:15.478Z,17.60
2023-04-22T14:43:42.021Z,18.92
2023-04-22T14:46:08.624Z,18.20
2023-04-22T14:48:35.584Z,17.55
2023-04-22T14:51:02.448Z,15.23
2023-04-22T14:53:29.060Z,13.88
2023-04-22T14:55:56.530Z,14.02
2023-04-22T14:58:23.501Z,11.85
2023-04-22T15:00:50.577Z,11.65
2023-04-22T15:03:17.992Z,14.18
2023-04-22T15:05:45.514Z,14.40
2023-04-22T15:08:11.987Z,11.88
2023-04-22T15:10:38.560Z,11.38
2023-04-22T15:13:05.114Z,8.55
2023-04-22T15:15:31.877Z,10.13
2023-04-22T15:17:58.452Z,11.80
2023-04-22T15:20:25.092Z,12.35
2023-04-22T15:22:52.058Z,11.43
2023-04-22T15:25:19.029Z,11.27
2023-04-22T15:27:46.110Z,12.98
2023-04-22T15:30:12.929Z,12.77
2023-04-22T15:32:39.483Z,13.10
2023-04-22T15:35:07.949Z,12.52
2023-04-22T15:37:34.491Z,12.60
2023-04-22T15:40:01.017Z,12.48
2023-04-22T15:42:27.609Z,12.07
2023-04-22T15:44:54.094Z,10.85
2023-04-22T15:47:20.767Z,11.25
2023-04-22T15:49:47.447Z,10.40
2023-04-22T15:52:13.972Z,9.60
2023-04-22T15:54:40.594Z,9.63
2023-04-22T15:57:07.169Z,11.30
2023-04-22T15:59:33.689Z,10.80
2023-04-22T16:02:00.798Z,11.30
2023-04-22T16:04:27.840Z,11.15
2023-04-22T16:06:57.191Z,11.30
2023-04-22T16:09:24.197Z,12.98
2023-04-22T16:11:51.444Z,12.52
2023-04-22T16:14:18.198Z,12.77
2023-04-22T16:16:45.747Z,12.10
2023-04-22T16:19:12.628Z,8.93
2023-04-22T16:21:39.183Z,9.63
2023-04-22T16:24:06.114Z,9.43
2023-04-22T16:26:32.671Z,8.65
2023-04-22T16:28:59.250Z,8.25
2023-04-22T16:31:25.942Z,8.65
2023-04-22T16:33:52.874Z,6.20
2023-04-22T16:36:19.442Z,5.47
2023-04-22T16:38:46.004Z,5.28
2023-04-22T16:41:12.686Z,5.07
2023-04-22T16:43:41.073Z,5.30
2023-04-22T16:46:08.035Z,6.68
2023-04-22T16:48:36.067Z,3.50
2023-04-22T16:51:02.604Z,3.67
2023-04-22T16:53:29.212Z,2.75
2023-04-22T16:55:56.689Z,2.80
2023-04-22T16:58:23.553Z,2.92
2023-04-22T17:00:50.174Z,4.82
2023-04-22T17:03:16.870Z,4.45
2023-04-22T17:05:43.517Z,4.95
2023-04-22T17:08:10.160Z,4.90
2023-04-22T17:10:41.344Z,3.22
2023-04-22T17:13:07.938Z,3.80
2023-04-22T17:15:34.506Z,3.15
2023-04-22T17:18:02.488Z,3.85
2023-04-22T17:20:29.076Z,3.40
2023-04-22T17:22:55.819Z,3.75
2023-04-22T17:25:22.316Z,4.53
2023-04-22T17:27:48.781Z,4.05
2023-04-22T17:30:15.354Z,3.92
2023-04-22T17:32:41.965Z,4.03
2023-04-22T17:35:08.871Z,4.55
2023-04-22T17:37:35.489Z,5.60
2023-04-22T17:40:03.432Z,6.07
2023-04-22T17:42:44.669Z,5.45
2023-04-22T17:45:12.315Z,6.32
2023-04-22T17:47:38.891Z,6.97
2023-04-22T17:50:05.883Z,5.80
2023-04-22T17:52:32.444Z,6.57
2023-04-22T17:55:00.019Z,6.28
2023-04-22T17:57:28.363Z,7.03
2023-04-22T17:59:55.092Z,7.40
2023-04-22T18:02:22.358Z,6.05
2023-04-22T18:04:48.986Z,6.93
2023-04-22T18:07:15.681Z,5.53
2023-04-22T18:09:42.836Z,6.35
2023-04-22T18:12:09.912Z,6.65
2023-04-22T18:14:36.631Z,5.85
2023-04-22T18:17:03.495Z,3.92
2023-04-22T18:19:30.070Z,3.42
2023-04-22T18:21:59.996Z,3.83
2023-04-22T18:24:28.024Z,4.25
2023-04-22T18:26:54.574Z,3.92
2023-04-22T18:29:21.136Z,3.40
2023-04-22T18:31:47.817Z,2.70
2023-04-22T18:34:15.837Z,2.88
2023-04-22T18:36:42.600Z,2.55
2023-04-22T18:39:09.694Z,2.45
2023-04-22T18:41:38.595Z,2.17
2023-04-22T18:44:05.552Z,3.13
2023-04-22T18:46:32.210Z,2.15
2023-04-22T18:48:59.068Z,2.92
2023-04-22T18:51:25.738Z,2.35
2023-04-22T18:53:52.430Z,2.88
2023-04-22T18:56:18.972Z,3.05
2023-04-22T18:58:45.569Z,3.47
2023-04-22T19:01:12.150Z,3.42
2023-04-22T19:03:39.628Z,4.93
2023-04-22T19:06:06.924Z,5.05
2023-04-22T19:08:34.002Z,5.93
2023-04-22T19:11:01.860Z,12.50
2023-04-22T19:13:30.154Z,12.88
2023-04-22T19:15:57.866Z,12.45
2023-04-22T19:18:24.461Z,10.70
2023-04-22T19:20:51.081Z,10.40
2023-04-22T19:23:17.696Z,10.73
2023-04-22T19:25:44.329Z,9.18
2023-04-22T19:28:10.897Z,8.35
2023-04-22T19:30:37.444Z,7.90
2023-04-22T19:33:04.168Z,7.22
2023-04-22T19:35:31.004Z,7.70
2023-04-22T19:37:57.549Z,9.57
2023-04-22T19:40:24.099Z,8.43
2023-04-22T19:42:51.092Z,7.70
2023-04-22T19:45:17.846Z,8.68
2023-04-22T19:47:45.250Z,7.90
2023-04-22T19:50:12.375Z,9.27
2023-04-22T19:52:40.836Z,9.10
2023-04-22T19:55:09.279Z,9.27
2023-04-22T19:57:37.298Z,10.35
2023-04-22T20:00:07.311Z,9.65
2023-04-22T20:02:38.000Z,8.45
2023-04-22T20:05:05.835Z,9.23
2023-04-22T20:07:33.816Z,9.57
2023-04-22T20:10:02.261Z,8.68
2023-04-22T20:12:29.430Z,7.60
2023-04-22T20:14:57.939Z,7.28
2023-04-22T20:17:25.502Z,7.95
2023-04-22T20:19:52.842Z,6.57
2023-04-22T20:22:22.072Z,5.78
2023-04-22T20:25:02.063Z,5.85
2023-04-22T20:27:32.641Z,5.00
2023-04-22T20:30:00.141Z,5.30
2023-04-22T20:32:27.989Z,5.18
2023-04-22T20:34:55.911Z,5.38
2023-04-22T20:37:23.854Z,6.60
2023-04-22T20:39:51.474Z,6.43
2023-04-22T20:42:19.148Z,6.68
2023-04-22T20:44:46.391Z,7.57
2023-04-22T20:47:13.757Z,7.38
2023-04-22T20:49:41.168Z,9.27
2023-04-22T20:52:08.657Z,9.93
2023-04-22T20:54:36.181Z,10.60
2023-04-22T20:57:04.633Z,12.82
2023-04-22T20:59:31.358Z,13.23
2023-04-22T21:01:58.927Z,13.43
2023-04-22T21:04:26.988Z,14.30
2023-04-22T21:06:55.295Z,14.63
2023-04-22T21:09:24.806Z,18.13
2023-04-22T21:11:52.769Z,18.42
2023-04-22T21:14:22.174Z,18.63
2023-04-22T21:17:11.749Z,21.98
2023-04-22T21:19:40.985Z,21.38
2023-04-22T21:22:08.700Z,21.02
2023-04-22T21:24:35.621Z,22.05
2023-04-22T21:27:02.962Z,22.73
2023-04-22T21:29:30.005Z,24.58
2023-04-22T21:32:08.171Z,25.23
2023-04-22T21:34:35.788Z,23.08
2023-04-22T21:37:02.593Z,23.88
2023-04-22T21:39:29.896Z,23.25
2023-04-22T21:41:56.713Z,24.35
2023-04-22T21:44:23.241Z,24.95
2023-04-22T21:46:49.815Z,25.13
2023-04-22T21:49:16.333Z,25.75
2023-04-22T21:51:43.005Z,25.48
2023-04-22T21:54:09.774Z,25.02
2023-04-22T21:56:36.395Z,25.92
2023-04-22T21:59:02.953Z,25.33
2023-04-22T22:01:29.459Z,25.40
2023-04-22T22:03:56.137Z,24.80
2023-04-22T22:06:22.915Z,23.00
2023-04-22T22:08:49.426Z,22.42
2023-04-22T22:11:27.612Z,21.60
2023-04-22T22:13:57.165Z,22.17
2023-04-22T22:16:24.725Z,20.98
2023-04-22T22:18:51.920Z,19.08
2023-04-22T22:21:18.739Z,20.50
2023-04-22T22:23:45.319Z,20.00
2023-04-22T22:26:12.805Z,19.27
2023-04-22T22:28:39.822Z,18.73
2023-04-22T22:31:06.918Z,19.73
2023-04-22T22:33:33.559Z,19.50
2023-04-22T22:36:00.054Z,19.92
2023-04-22T22:38:26.549Z,19.48
2023-04-22T22:40:53.089Z,19.50
2023-04-22T22:43:19.618Z,20.40
2023-04-22T22:45:46.453Z,21.75
2023-04-22T22:48:13.374Z,22.00
2023-04-22T22:50:40.708Z,23.17
2023-04-22T22:53:07.233Z,25.05
2023-04-22T22:55:34.194Z,21.30
2023-04-22T22:58:00.950Z,22.40
2023-04-22T23:00:27.680Z,20.88
2023-04-22T23:02:54.563Z,20.27
2023-04-22T23:05:21.437Z,20.05
2023-04-22T23:07:47.924Z,21.27
2023-04-22T23:10:15.023Z,21.08
2023-04-22T23:12:41.539Z,20.70
2023-04-22T23:15:08.945Z,20.95
2023-04-22T23:17:36.632Z,20.10
2023-04-22T23:20:04.446Z,19.20
2023-04-22T23:22:32.219Z,20.27
2023-04-22T23:24:59.170Z,20.15
2023-04-22T23:27:26.043Z,18.65
2023-04-22T23:29:52.858Z,16.45
2023-04-22T23:32:19.767Z,16.05
2023-04-22T23:34:49.599Z,17.45
2023-04-22T23:37:18.933Z,16.70
2023-04-22T23:39:45.603Z,15.98
2023-04-22T23:42:12.294Z,16.50
2023-04-22T23:44:39.130Z,14.75
2023-04-22T23:47:06.370Z,13.07
2023-04-22T23:49:32.935Z,12.30
2023-04-22T23:51:59.636Z,12.02
2023-04-22T23:54:26.999Z,11.32
2023-04-22T23:56:53.928Z,11.00
2023-04-22T23:59:20.711Z,11.95
